createdAt,value
2023-02-12T00:00:58.264Z,8.40
2023-02-12T00:02:02.098Z,8.40
2023-02-12T00:03:08.948Z,8.40
2023-02-12T00:04:16.508Z,8.40
2023-02-12T00:05:19.002Z,8.40
2023-02-12T00:06:24.883Z,8.40
2023-02-12T00:07:30.393Z,8.40
2023-02-12T00:08:33.900Z,8.40
2023-02-12T00:09:37.104Z,8.40
2023-02-12T00:10:43.160Z,8.40
2023-02-12T00:11:45.661Z,8.40
2023-02-12T00:12:49.065Z,8.40
2023-02-12T00:13:55.548Z,8.40
2023-02-12T00:14:58.906Z,8.40
2023-02-12T00:16:06.079Z,8.40
2023-02-12T00:17:10.911Z,8.40
2023-02-12T00:18:13.345Z,8.40
2023-02-12T00:19:19.717Z,8.40
2023-02-12T00:20:22.098Z,8.40
2023-02-12T00:21:26.861Z,8.40
2023-02-12T00:22:29.604Z,8.40
2023-02-12T00:23:33.525Z,8.40
2023-02-12T00:24:35.917Z,8.40
2023-02-12T00:25:43.403Z,8.40
2023-02-12T00:26:48.153Z,8.40
2023-02-12T00:27:52.167Z,8.40
2023-02-12T00:28:55.352Z,8.40
2023-02-12T00:29:59.001Z,8.40
2023-02-12T00:31:09.349Z,8.30
2023-02-12T00:32:19.376Z,8.40
2023-02-12T00:33:21.798Z,8.30
2023-02-12T00:34:25.468Z,8.30
2023-02-12T00:35:27.980Z,8.30
2023-02-12T00:36:33.530Z,8.30
2023-02-12T00:37:36.005Z,8.30
2023-02-12T00:38:42.266Z,8.30
2023-02-12T00:39:45.880Z,8.30
2023-02-12T00:40:49.416Z,8.30
2023-02-12T00:41:52.161Z,8.30
2023-02-12T00:42:55.618Z,8.30
2023-02-12T00:43:59.341Z,8.30
2023-02-12T00:45:03.332Z,8.30
2023-02-12T00:46:07.249Z,8.30
2023-02-12T00:47:10.685Z,8.30
2023-02-12T00:48:15.428Z,8.30
2023-02-12T00:49:20.387Z,8.30
2023-02-12T00:50:22.864Z,8.30
2023-02-12T00:51:26.222Z,8.30
2023-02-12T00:52:28.657Z,8.30
2023-02-12T00:53:33.649Z,8.30
2023-02-12T00:54:36.168Z,8.30
2023-02-12T00:55:39.636Z,8.30
2023-02-12T00:56:42.084Z,8.30
2023-02-12T00:57:45.710Z,8.30
2023-02-12T00:58:48.176Z,8.20
2023-02-12T00:59:51.771Z,8.20
2023-02-12T01:00:55.366Z,8.20
2023-02-12T01:02:00.071Z,8.20
2023-02-12T01:03:03.846Z,8.20
2023-02-12T01:04:10.286Z,8.20
2023-02-12T01:05:12.840Z,8.20
2023-02-12T01:06:16.408Z,8.20
2023-02-12T01:07:18.805Z,8.20
2023-02-12T01:08:22.312Z,8.20
2023-02-12T01:09:25.983Z,8.20
2023-02-12T01:10:29.879Z,8.20
2023-02-12T01:11:32.344Z,8.20
2023-02-12T01:12:35.891Z,8.20
2023-02-12T01:13:38.334Z,8.20
2023-02-12T01:14:41.840Z,8.20
2023-02-12T01:15:44.452Z,8.20
2023-02-12T01:16:47.869Z,8.20
2023-02-12T01:17:52.990Z,8.10
2023-02-12T01:18:57.154Z,8.10
2023-02-12T01:20:03.905Z,8.10
2023-02-12T01:21:13.455Z,8.10
2023-02-12T01:22:15.863Z,8.10
2023-02-12T01:23:19.861Z,8.10
2023-02-12T01:24:23.270Z,8.10
2023-02-12T01:25:26.388Z,8.10
2023-02-12T01:26:32.922Z,8.10
2023-02-12T01:27:35.467Z,8.10
2023-02-12T01:28:39.196Z,8.10
2023-02-12T01:29:44.724Z,8.20
2023-02-12T01:30:49.103Z,8.20
2023-02-12T01:31:51.873Z,8.10
2023-02-12T01:32:55.584Z,8.10
2023-02-12T01:34:00.136Z,8.10
2023-02-12T01:35:05.985Z,8.10
2023-02-12T01:36:13.290Z,8.10
2023-02-12T01:37:16.908Z,8.10
2023-02-12T01:38:19.349Z,8.10
2023-02-12T01:39:22.778Z,8.10
2023-02-12T01:40:25.335Z,8.10
2023-02-12T01:41:31.921Z,8.10
2023-02-12T01:42:34.681Z,8.10
2023-02-12T01:43:39.790Z,8.10
2023-02-12T01:44:46.596Z,8.10
2023-02-12T01:45:56.718Z,8.10
2023-02-12T01:47:01.817Z,8.10
2023-02-12T01:48:05.914Z,8.10
2023-02-12T01:49:15.456Z,8.10
2023-02-12T01:50:21.259Z,8.10
2023-02-12T01:51:27.139Z,8.10
2023-02-12T01:52:34.370Z,8.10
2023-02-12T01:53:45.209Z,8.10
2023-02-12T01:54:48.970Z,8.10
2023-02-12T01:55:58.279Z,8.00
2023-02-12T01:57:03.204Z,8.10
2023-02-12T01:58:10.091Z,8.10
2023-02-12T01:59:13.305Z,8.00
2023-02-12T02:00:26.698Z,8.00
2023-02-12T02:01:31.723Z,8.00
2023-02-12T02:02:38.233Z,8.00
2023-02-12T02:03:45.262Z,8.00
2023-02-12T02:04:55.186Z,8.00
2023-02-12T02:06:05.015Z,8.00
2023-02-12T02:07:12.046Z,8.00
2023-02-12T02:08:14.614Z,8.00
2023-02-12T02:09:20.407Z,8.00
2023-02-12T02:10:22.777Z,8.00
2023-02-12T02:11:51.564Z,8.00
2023-02-12T02:13:11.792Z,8.00
2023-02-12T02:14:33.624Z,8.00
2023-02-12T02:15:41.025Z,8.00
2023-02-12T02:16:55.345Z,8.00
2023-02-12T02:18:04.676Z,8.00
2023-02-12T02:19:25.950Z,8.00
2023-02-12T02:20:59.022Z,8.00
2023-02-12T02:22:19.219Z,8.00
2023-02-12T02:23:56.544Z,8.00
2023-02-12T02:25:50.390Z,8.00
2023-02-12T02:27:29.266Z,8.00
2023-02-12T02:29:00.825Z,8.00
2023-02-12T02:30:45.332Z,8.00
2023-02-12T02:31:54.029Z,8.00
2023-02-12T02:33:11.875Z,8.00
2023-02-12T02:34:22.354Z,8.00
2023-02-12T02:35:32.801Z,8.00
2023-02-12T02:36:59.322Z,8.00
2023-02-12T02:38:20.132Z,8.00
2023-02-12T02:39:31.940Z,8.00
2023-02-12T02:40:41.843Z,8.00
2023-02-12T02:41:52.037Z,8.00
2023-02-12T02:42:59.673Z,7.90
2023-02-12T02:44:07.192Z,7.90
2023-02-12T02:45:15.718Z,8.00
2023-02-12T02:46:30.696Z,8.00
2023-02-12T02:47:39.667Z,7.90
2023-02-12T02:48:47.683Z,7.90
2023-02-12T02:50:01.983Z,7.90
2023-02-12T02:51:10.794Z,7.90
2023-02-12T02:52:18.972Z,7.90
2023-02-12T02:53:28.733Z,7.90
2023-02-12T02:54:36.395Z,7.90
2023-02-12T02:55:45.313Z,7.90
2023-02-12T02:56:52.586Z,7.90
2023-02-12T02:57:58.880Z,7.90
2023-02-12T02:59:07.716Z,7.90
2023-02-12T03:00:17.280Z,7.90
2023-02-12T03:01:28.239Z,7.90
2023-02-12T03:02:36.297Z,7.90
2023-02-12T03:03:48.853Z,7.90
2023-02-12T03:04:55.459Z,7.90
2023-02-12T03:06:06.156Z,7.90
2023-02-12T03:07:15.336Z,7.90
2023-02-12T03:08:25.270Z,7.90
2023-02-12T03:09:35.845Z,7.90
2023-02-12T03:10:45.744Z,7.90
2023-02-12T03:11:50.914Z,7.90
2023-02-12T03:13:00.883Z,7.90
2023-02-12T03:14:10.128Z,7.90
2023-02-12T03:15:19.662Z,7.90
2023-02-12T03:16:27.579Z,7.90
2023-02-12T03:17:35.869Z,7.90
2023-02-12T03:18:46.024Z,7.90
2023-02-12T03:19:53.710Z,7.90
2023-02-12T03:21:03.743Z,8.00
2023-02-12T03:22:13.639Z,7.90
2023-02-12T03:23:21.650Z,7.90
2023-02-12T03:24:32.841Z,8.00
2023-02-12T03:25:40.851Z,8.00
2023-02-12T03:26:50.408Z,8.00
2023-02-12T03:28:01.941Z,8.00
2023-02-12T03:29:05.503Z,7.90
2023-02-12T03:30:09.803Z,8.00
2023-02-12T03:31:30.766Z,7.90
2023-02-12T03:32:46.546Z,8.00
2023-02-12T03:34:05.258Z,7.90
2023-02-12T03:35:14.737Z,8.00
2023-02-12T03:36:35.623Z,8.00
2023-02-12T03:37:43.916Z,7.90
2023-02-12T03:38:55.109Z,8.00
2023-02-12T03:40:06.296Z,7.90
2023-02-12T03:41:17.206Z,7.90
2023-02-12T03:42:34.059Z,8.00
2023-02-12T03:43:50.398Z,7.90
2023-02-12T03:44:57.171Z,8.00
2023-02-12T03:46:08.136Z,7.90
2023-02-12T03:47:22.702Z,7.90
2023-02-12T03:48:31.584Z,7.90
2023-02-12T03:49:43.429Z,7.90
2023-02-12T03:50:54.892Z,7.90
2023-02-12T03:51:58.821Z,7.90
2023-02-12T03:53:02.195Z,7.90
2023-02-12T03:54:07.015Z,7.90
2023-02-12T03:55:11.720Z,7.90
2023-02-12T03:56:21.395Z,7.90
2023-02-12T03:57:31.432Z,7.90
2023-02-12T03:58:36.064Z,7.90
2023-02-12T03:59:41.930Z,7.90
2023-02-12T04:00:44.404Z,7.90
2023-02-12T04:01:49.404Z,7.90
2023-02-12T04:02:54.591Z,8.00
2023-02-12T04:03:58.467Z,8.00
2023-02-12T04:05:05.934Z,8.00
2023-02-12T04:06:24.034Z,8.00
2023-02-12T04:07:26.548Z,8.00
2023-02-12T04:08:32.022Z,8.00
2023-02-12T04:09:34.434Z,8.00
2023-02-12T04:10:47.884Z,8.00
2023-02-12T04:12:09.629Z,8.00
2023-02-12T04:13:24.985Z,7.90
2023-02-12T04:14:41.369Z,7.90
2023-02-12T04:15:58.520Z,8.00
2023-02-12T04:17:06.274Z,8.00
2023-02-12T04:18:19.597Z,7.90
2023-02-12T04:19:33.321Z,7.90
2023-02-12T04:20:49.685Z,7.90
2023-02-12T04:22:08.396Z,7.90
2023-02-12T04:23:23.827Z,7.90
2023-02-12T04:24:39.891Z,7.90
2023-02-12T04:25:54.861Z,7.90
2023-02-12T04:27:09.536Z,7.90
2023-02-12T04:28:24.410Z,7.90
2023-02-12T04:29:38.733Z,7.90
2023-02-12T04:30:48.642Z,7.90
2023-02-12T04:31:57.289Z,7.90
2023-02-12T04:33:02.758Z,7.90
2023-02-12T04:34:16.118Z,7.90
2023-02-12T04:35:25.150Z,7.90
2023-02-12T04:36:32.443Z,7.90
2023-02-12T04:37:41.961Z,7.90
2023-02-12T04:38:53.170Z,7.90
2023-02-12T04:39:56.370Z,7.90
2023-02-12T04:41:02.660Z,7.90
2023-02-12T04:42:05.594Z,7.90
2023-02-12T04:43:09.817Z,7.90
2023-02-12T04:44:18.596Z,7.90
2023-02-12T04:45:27.044Z,7.90
2023-02-12T04:46:29.418Z,7.90
2023-02-12T04:47:32.860Z,7.90
2023-02-12T04:48:37.162Z,7.90
2023-02-12T04:49:42.112Z,7.90
2023-02-12T04:50:46.373Z,7.90
2023-02-12T04:51:50.994Z,7.90
2023-02-12T04:52:53.364Z,7.90
2023-02-12T04:53:56.694Z,7.90
2023-02-12T04:54:59.100Z,7.90
2023-02-12T04:56:02.434Z,7.90
2023-02-12T04:57:08.809Z,7.90
2023-02-12T04:58:12.548Z,7.90
2023-02-12T04:59:15.186Z,7.90
2023-02-12T05:00:19.791Z,7.90
2023-02-12T05:01:25.777Z,7.90
2023-02-12T05:02:29.359Z,7.90
2023-02-12T05:03:31.669Z,7.90
2023-02-12T05:04:35.024Z,7.90
2023-02-12T05:05:38.762Z,7.90
2023-02-12T05:06:43.513Z,7.90
2023-02-12T05:07:48.507Z,7.90
2023-02-12T05:08:53.775Z,7.90
2023-02-12T05:09:57.759Z,7.90
2023-02-12T05:11:06.292Z,7.90
2023-02-12T05:12:08.998Z,7.90
2023-02-12T05:13:12.510Z,7.90
2023-02-12T05:14:15.073Z,7.90
2023-02-12T05:15:19.665Z,7.90
2023-02-12T05:16:22.769Z,7.90
2023-02-12T05:17:26.556Z,7.90
2023-02-12T05:18:29.533Z,7.90
2023-02-12T05:19:33.117Z,7.90
2023-02-12T05:20:35.454Z,7.90
2023-02-12T05:21:40.385Z,7.90
2023-02-12T05:22:45.845Z,7.90
2023-02-12T05:23:49.248Z,7.90
2023-02-12T05:24:51.674Z,7.90
2023-02-12T05:25:55.294Z,7.90
2023-02-12T05:27:00.725Z,7.90
2023-02-12T05:28:04.161Z,7.90
2023-02-12T05:29:06.809Z,7.90
2023-02-12T05:30:11.462Z,7.90
2023-02-12T05:31:18.842Z,7.90
2023-02-12T05:32:24.019Z,7.90
2023-02-12T05:33:26.565Z,7.90
2023-02-12T05:34:30.212Z,7.90
2023-02-12T05:35:35.721Z,7.90
2023-02-12T05:36:41.000Z,7.90
2023-02-12T05:37:43.385Z,7.90
2023-02-12T05:38:46.932Z,7.90
2023-02-12T05:39:50.379Z,7.90
2023-02-12T05:40:53.899Z,7.90
2023-02-12T05:41:57.341Z,7.90
2023-02-12T05:42:59.931Z,7.90
2023-02-12T05:44:04.214Z,7.90
2023-02-12T05:45:08.075Z,7.90
2023-02-12T05:46:12.622Z,7.90
2023-02-12T05:47:15.314Z,7.90
2023-02-12T05:48:18.812Z,7.90
2023-02-12T05:49:21.324Z,7.90
2023-02-12T05:50:24.834Z,7.90
2023-02-12T05:51:36.314Z,7.90
2023-02-12T05:52:41.091Z,7.90
2023-02-12T05:53:43.686Z,7.90
2023-02-12T05:54:49.805Z,7.90
2023-02-12T05:55:52.627Z,7.90
2023-02-12T05:56:58.362Z,7.90
2023-02-12T05:58:01.093Z,7.90
2023-02-12T05:59:08.169Z,7.90
2023-02-12T06:00:12.762Z,7.90
2023-02-12T06:01:19.436Z,7.90
2023-02-12T06:02:21.992Z,7.90
2023-02-12T06:03:25.487Z,7.90
2023-02-12T06:04:31.115Z,7.90
2023-02-12T06:05:37.434Z,7.90
2023-02-12T06:06:42.138Z,7.90
2023-02-12T06:07:47.000Z,7.90
2023-02-12T06:08:50.208Z,7.90
2023-02-12T06:09:54.943Z,7.90
2023-02-12T06:11:02.381Z,7.90
2023-02-12T06:12:06.263Z,7.90
2023-02-12T06:13:08.657Z,7.90
2023-02-12T06:14:16.049Z,7.90
2023-02-12T06:15:18.633Z,7.90
2023-02-12T06:16:24.512Z,7.90
2023-02-12T06:17:27.167Z,7.90
2023-02-12T06:18:31.599Z,7.90
2023-02-12T06:19:37.471Z,7.90
2023-02-12T06:20:40.914Z,7.90
2023-02-12T06:21:43.964Z,7.90
2023-02-12T06:22:48.873Z,7.90
2023-02-12T06:23:52.381Z,7.90
2023-02-12T06:24:55.843Z,7.90
2023-02-12T06:25:58.787Z,7.90
2023-02-12T06:27:02.485Z,7.90
2023-02-12T06:28:05.378Z,7.90
2023-02-12T06:29:09.311Z,7.90
2023-02-12T06:30:14.549Z,7.90
2023-02-12T06:31:22.129Z,7.90
2023-02-12T06:32:25.786Z,7.90
2023-02-12T06:33:28.525Z,7.90
2023-02-12T06:34:31.951Z,7.90
2023-02-12T06:35:36.331Z,7.90
2023-02-12T06:36:41.150Z,7.90
2023-02-12T06:37:43.613Z,7.90
2023-02-12T06:38:51.234Z,7.90
2023-02-12T06:39:53.561Z,7.90
2023-02-12T06:40:56.972Z,7.90
2023-02-12T06:41:59.425Z,7.90
2023-02-12T06:43:03.006Z,7.90
2023-02-12T06:44:06.634Z,7.90
2023-02-12T06:45:10.864Z,7.80
2023-02-12T06:46:14.274Z,7.90
2023-02-12T06:47:17.754Z,7.90
2023-02-12T06:48:20.409Z,7.80
2023-02-12T06:49:23.757Z,7.80
2023-02-12T06:50:26.564Z,7.80
2023-02-12T06:51:31.462Z,7.80
2023-02-12T06:52:33.968Z,7.80
2023-02-12T06:53:37.891Z,7.80
2023-02-12T06:54:42.025Z,7.80
2023-02-12T06:55:45.557Z,7.80
2023-02-12T06:56:48.195Z,7.80
2023-02-12T06:57:51.735Z,7.80
2023-02-12T06:58:56.914Z,7.80
2023-02-12T07:00:03.136Z,7.80
2023-02-12T07:01:13.343Z,7.80
2023-02-12T07:02:17.088Z,7.80
2023-02-12T07:03:19.594Z,7.80
2023-02-12T07:04:23.091Z,7.80
2023-02-12T07:05:25.887Z,7.80
2023-02-12T07:06:31.944Z,7.80
2023-02-12T07:07:34.441Z,7.80
2023-02-12T07:08:38.435Z,7.80
2023-02-12T07:09:42.216Z,7.80
2023-02-12T07:10:51.218Z,7.80
2023-02-12T07:11:53.688Z,7.80
2023-02-12T07:12:57.121Z,7.80
2023-02-12T07:14:00.178Z,7.80
2023-02-12T07:15:03.751Z,7.80
2023-02-12T07:16:08.861Z,7.80
2023-02-12T07:17:15.094Z,7.80
2023-02-12T07:18:17.531Z,7.80
2023-02-12T07:19:21.019Z,7.80
2023-02-12T07:20:23.491Z,7.80
2023-02-12T07:21:26.914Z,7.80
2023-02-12T07:22:32.462Z,7.80
2023-02-12T07:23:35.889Z,7.80
2023-02-12T07:24:39.457Z,7.80
2023-02-12T07:25:43.445Z,7.80
2023-02-12T07:26:47.036Z,7.80
2023-02-12T07:27:49.568Z,7.80
2023-02-12T07:28:55.971Z,7.80
2023-02-12T07:29:58.519Z,7.80
2023-02-12T07:31:07.369Z,7.80
2023-02-12T07:32:09.950Z,7.80
2023-02-12T07:33:13.527Z,7.80
2023-02-12T07:34:16.113Z,7.80
2023-02-12T07:35:22.614Z,7.80
2023-02-12T07:36:28.358Z,7.90
2023-02-12T07:37:30.922Z,7.80
2023-02-12T07:38:36.120Z,7.80
2023-02-12T07:39:39.767Z,7.80
2023-02-12T07:40:43.615Z,7.90
2023-02-12T07:41:47.036Z,7.90
2023-02-12T07:42:55.254Z,7.90
2023-02-12T07:44:03.630Z,7.90
2023-02-12T07:45:09.824Z,7.90
2023-02-12T07:46:16.819Z,7.90
2023-02-12T07:47:20.412Z,7.90
2023-02-12T07:48:22.780Z,7.90
2023-02-12T07:49:28.323Z,7.90
2023-02-12T07:50:30.815Z,7.90
2023-02-12T07:51:35.750Z,7.90
2023-02-12T07:52:38.152Z,7.90
2023-02-12T07:53:42.337Z,7.90
2023-02-12T07:54:44.891Z,7.90
2023-02-12T07:55:51.070Z,8.00
2023-02-12T07:56:54.621Z,8.00
2023-02-12T07:57:57.172Z,8.00
2023-02-12T07:59:03.529Z,8.00
2023-02-12T08:00:09.185Z,8.00
2023-02-12T08:01:24.637Z,8.00
2023-02-12T08:02:30.002Z,8.00
2023-02-12T08:03:33.497Z,8.00
2023-02-12T08:04:36.879Z,8.00
2023-02-12T08:05:39.376Z,8.00
2023-02-12T08:06:46.071Z,8.10
2023-02-12T08:07:48.511Z,8.10
2023-02-12T08:08:53.462Z,8.10
2023-02-12T08:09:56.229Z,8.10
2023-02-12T08:11:01.262Z,8.10
2023-02-12T08:12:05.469Z,8.10
2023-02-12T08:13:07.868Z,8.10
2023-02-12T08:14:14.488Z,8.10
2023-02-12T08:15:17.270Z,8.10
2023-02-12T08:16:23.636Z,8.10
2023-02-12T08:17:26.329Z,8.10
2023-02-12T08:18:31.164Z,8.10
2023-02-12T08:19:34.587Z,8.20
2023-02-12T08:20:37.057Z,8.20
2023-02-12T08:21:40.882Z,8.20
2023-02-12T08:22:43.346Z,8.20
2023-02-12T08:23:49.946Z,8.20
2023-02-12T08:24:54.704Z,8.20
2023-02-12T08:26:12.598Z,8.20
2023-02-12T08:27:16.206Z,8.20
2023-02-12T08:28:18.740Z,8.20
2023-02-12T08:29:28.056Z,8.20
2023-02-12T08:30:30.610Z,8.20
2023-02-12T08:31:36.840Z,8.20
2023-02-12T08:32:39.560Z,8.30
2023-02-12T08:33:43.239Z,8.30
2023-02-12T08:34:46.696Z,8.30
2023-02-12T08:35:49.183Z,8.30
2023-02-12T08:36:55.207Z,8.30
2023-02-12T08:37:57.666Z,8.30
2023-02-12T08:39:04.445Z,8.30
2023-02-12T08:40:08.421Z,8.30
2023-02-12T08:41:16.350Z,8.30
2023-02-12T08:42:20.229Z,8.30
2023-02-12T08:43:22.880Z,8.30
2023-02-12T08:44:27.310Z,8.40
2023-02-12T08:45:32.455Z,8.40
2023-02-12T08:46:39.071Z,8.40
2023-02-12T08:47:42.666Z,8.40
2023-02-12T08:48:46.074Z,8.40
2023-02-12T08:49:51.108Z,8.40
2023-02-12T08:50:55.113Z,8.40
2023-02-12T08:52:02.001Z,8.40
2023-02-12T08:53:04.656Z,8.40
2023-02-12T08:54:11.846Z,8.40
2023-02-12T08:55:16.095Z,8.40
2023-02-12T08:56:21.383Z,8.40
2023-02-12T08:57:24.935Z,8.40
2023-02-12T08:58:27.615Z,8.40
2023-02-12T08:59:31.958Z,8.40
2023-02-12T09:00:34.531Z,8.40
2023-02-12T09:01:41.021Z,8.40
2023-02-12T09:02:43.706Z,8.40
2023-02-12T09:03:49.865Z,8.50
2023-02-12T09:04:53.529Z,8.50
2023-02-12T09:05:56.390Z,8.50
2023-02-12T09:07:00.071Z,8.50
2023-02-12T09:08:02.761Z,8.50
2023-02-12T09:09:07.422Z,8.50
2023-02-12T09:10:10.978Z,8.50
2023-02-12T09:11:17.727Z,8.50
2023-02-12T09:12:22.683Z,8.50
2023-02-12T09:13:25.437Z,8.50
2023-02-12T09:14:28.834Z,8.50
2023-02-12T09:15:31.293Z,8.50
2023-02-12T09:16:38.168Z,8.50
2023-02-12T09:17:43.236Z,8.50
2023-02-12T09:18:47.011Z,8.50
2023-02-12T09:19:49.431Z,8.50
2023-02-12T09:20:52.890Z,8.60
2023-02-12T09:21:56.860Z,8.60
2023-02-12T09:23:00.851Z,8.60
2023-02-12T09:24:04.745Z,8.60
2023-02-12T09:25:08.948Z,8.60
2023-02-12T09:26:16.304Z,8.60
2023-02-12T09:27:20.213Z,8.60
2023-02-12T09:28:23.918Z,8.60
2023-02-12T09:29:27.348Z,8.60
2023-02-12T09:30:29.959Z,8.60
2023-02-12T09:31:34.950Z,8.70
2023-02-12T09:32:37.455Z,8.70
2023-02-12T09:33:41.898Z,8.70
2023-02-12T09:34:45.482Z,8.70
2023-02-12T09:35:48.004Z,8.70
2023-02-12T09:36:51.417Z,8.70
2023-02-12T09:37:54.387Z,8.80
2023-02-12T09:38:59.355Z,8.80
2023-02-12T09:40:01.977Z,8.80
2023-02-12T09:41:52.242Z,8.80
2023-02-12T09:43:13.397Z,8.80
2023-02-12T09:44:25.178Z,8.80
2023-02-12T09:45:33.027Z,8.80
2023-02-12T09:46:43.817Z,8.90
2023-02-12T09:47:56.849Z,8.90
2023-02-12T09:49:11.461Z,8.90
2023-02-12T09:50:38.715Z,8.90
2023-02-12T09:51:51.570Z,8.90
2023-02-12T09:52:59.318Z,8.90
2023-02-12T09:54:07.284Z,8.90
2023-02-12T09:55:15.025Z,9.00
2023-02-12T09:56:22.313Z,9.00
2023-02-12T09:57:31.083Z,9.00
2023-02-12T09:58:43.389Z,9.00
2023-02-12T09:59:52.542Z,9.00
2023-02-12T10:00:54.888Z,9.00
2023-02-12T10:01:59.877Z,9.00
2023-02-12T10:03:15.778Z,9.10
2023-02-12T10:04:19.663Z,9.10
2023-02-12T10:05:29.360Z,9.10
2023-02-12T10:06:41.495Z,9.10
2023-02-12T10:08:08.314Z,9.10
2023-02-12T10:09:34.480Z,9.10
2023-02-12T10:10:51.833Z,9.20
2023-02-12T10:12:05.414Z,9.20
2023-02-12T10:13:16.051Z,9.20
2023-02-12T10:14:51.168Z,9.20
2023-02-12T10:16:02.496Z,9.20
2023-02-12T10:17:15.494Z,9.20
2023-02-12T10:18:43.804Z,9.20
2023-02-12T10:20:29.399Z,9.30
2023-02-12T10:21:49.041Z,9.30
2023-02-12T10:23:08.618Z,9.30
2023-02-12T10:24:52.570Z,9.30
2023-02-12T10:25:59.919Z,9.30
2023-02-12T10:27:12.945Z,9.30
2023-02-12T10:28:20.982Z,9.40
2023-02-12T10:29:30.384Z,9.30
2023-02-12T10:30:44.687Z,9.40
2023-02-12T10:31:53.646Z,9.40
2023-02-12T10:33:04.170Z,9.40
2023-02-12T10:34:18.920Z,9.40
2023-02-12T10:35:24.859Z,9.40
2023-02-12T10:36:40.752Z,9.40
2023-02-12T10:37:48.699Z,9.40
2023-02-12T10:38:58.236Z,9.50
2023-02-12T10:40:16.463Z,9.50
2023-02-12T10:41:20.085Z,9.50
2023-02-12T10:42:36.146Z,9.50
2023-02-12T10:43:39.629Z,9.50
2023-02-12T10:44:44.494Z,9.50
2023-02-12T10:45:47.969Z,9.50
2023-02-12T10:46:50.683Z,9.50
2023-02-12T10:48:05.076Z,9.50
2023-02-12T10:49:12.608Z,9.50
2023-02-12T10:50:29.292Z,9.50
2023-02-12T10:51:56.412Z,9.60
2023-02-12T10:53:03.419Z,9.60
2023-02-12T10:54:41.304Z,9.60
2023-02-12T10:55:43.957Z,9.60
2023-02-12T10:56:47.517Z,9.60
2023-02-12T10:57:51.167Z,9.60
2023-02-12T10:58:57.163Z,9.60
2023-02-12T11:00:27.798Z,9.60
2023-02-12T11:01:37.347Z,9.60
2023-02-12T11:02:40.437Z,9.70
2023-02-12T11:03:45.814Z,9.70
2023-02-12T11:04:48.755Z,9.70
2023-02-12T11:05:54.535Z,9.70
2023-02-12T11:07:01.751Z,9.70
2023-02-12T11:08:05.667Z,9.80
2023-02-12T11:09:30.021Z,9.80
2023-02-12T11:10:38.868Z,9.80
2023-02-12T11:11:42.476Z,9.80
2023-02-12T11:12:48.271Z,9.80
2023-02-12T11:13:59.746Z,9.80
2023-02-12T11:15:14.613Z,9.80
2023-02-12T11:16:32.928Z,9.80
2023-02-12T11:17:39.540Z,9.90
2023-02-12T11:18:42.843Z,9.90
2023-02-12T11:19:47.237Z,9.90
2023-02-12T11:20:52.921Z,9.90
2023-02-12T11:22:11.219Z,9.90
2023-02-12T11:23:28.212Z,9.90
2023-02-12T11:24:34.450Z,9.90
2023-02-12T11:25:39.156Z,9.90
2023-02-12T11:26:42.437Z,10.00
2023-02-12T11:27:46.252Z,10.00
2023-02-12T11:28:57.117Z,10.00
2023-02-12T11:30:18.068Z,10.00
2023-02-12T11:31:25.496Z,10.00
2023-02-12T11:32:30.288Z,10.00
2023-02-12T11:33:36.972Z,10.00
2023-02-12T11:34:39.503Z,10.00
2023-02-12T11:35:56.003Z,10.00
2023-02-12T11:37:00.057Z,10.10
2023-02-12T11:38:05.429Z,10.10
2023-02-12T11:39:22.661Z,10.10
2023-02-12T11:40:30.204Z,10.10
2023-02-12T11:41:38.369Z,10.00
2023-02-12T11:42:43.425Z,10.00
2023-02-12T11:43:47.363Z,10.00
2023-02-12T11:44:53.337Z,10.00
2023-02-12T11:45:59.416Z,10.00
2023-02-12T11:47:09.162Z,10.00
2023-02-12T11:48:20.012Z,10.00
2023-02-12T11:49:28.861Z,10.00
2023-02-12T11:50:33.381Z,10.00
2023-02-12T11:51:39.050Z,10.00
2023-02-12T11:52:41.775Z,10.00
2023-02-12T11:53:51.513Z,10.00
2023-02-12T11:54:58.441Z,10.00
2023-02-12T11:56:05.044Z,10.00
2023-02-12T11:57:11.742Z,10.00
2023-02-12T11:58:17.855Z,10.00
2023-02-12T11:59:36.168Z,10.00
2023-02-12T12:00:46.057Z,10.00
2023-02-12T12:01:59.191Z,10.00
2023-02-12T12:03:12.545Z,10.00
2023-02-12T12:04:22.623Z,10.00
2023-02-12T12:05:35.306Z,10.00
2023-02-12T12:06:47.390Z,10.00
2023-02-12T12:07:56.025Z,10.00
2023-02-12T12:09:08.632Z,10.00
2023-02-12T12:10:21.409Z,10.00
2023-02-12T12:11:32.277Z,10.00
2023-02-12T12:12:43.457Z,10.00
2023-02-12T12:13:51.305Z,10.00
2023-02-12T12:15:18.812Z,10.10
2023-02-12T12:16:50.204Z,10.10
2023-02-12T12:18:28.378Z,10.10
2023-02-12T12:19:56.189Z,10.10
2023-02-12T12:21:08.403Z,10.10
2023-02-12T12:22:24.364Z,10.10
2023-02-12T12:23:35.382Z,10.10
2023-02-12T12:24:50.737Z,10.10
2023-02-12T12:25:59.887Z,10.10
2023-02-12T12:27:24.819Z,10.10
2023-02-12T12:28:38.588Z,10.10
2023-02-12T12:29:51.661Z,10.10
2023-02-12T12:31:04.350Z,10.10
2023-02-12T12:32:13.138Z,10.10
2023-02-12T12:33:24.896Z,10.00
2023-02-12T12:34:30.231Z,10.00
2023-02-12T12:35:48.282Z,10.00
2023-02-12T12:37:24.615Z,10.00
2023-02-12T12:38:46.573Z,10.00
2023-02-12T12:40:18.143Z,10.00
2023-02-12T12:41:29.634Z,10.00
2023-02-12T12:43:04.469Z,9.90
2023-02-12T12:44:30.168Z,9.90
2023-02-12T12:46:16.839Z,9.90
2023-02-12T12:47:27.200Z,9.90
2023-02-12T12:49:02.069Z,9.90
2023-02-12T12:50:31.291Z,9.90
2023-02-12T12:51:59.789Z,9.90
2023-02-12T12:53:26.432Z,9.90
2023-02-12T12:54:49.799Z,9.90
2023-02-12T12:56:31.421Z,9.90
2023-02-12T12:58:00.424Z,9.90
2023-02-12T12:59:56.888Z,10.00
2023-02-12T13:01:35.958Z,10.00
2023-02-12T13:03:35.066Z,10.00
2023-02-12T13:05:22.366Z,10.00
2023-02-12T13:06:48.676Z,10.00
2023-02-12T13:08:08.473Z,10.00
2023-02-12T13:09:50.690Z,10.00
2023-02-12T13:11:02.080Z,10.00
2023-02-12T13:12:29.835Z,10.00
2023-02-12T13:13:37.229Z,10.00
2023-02-12T13:14:48.724Z,9.90
2023-02-12T13:15:59.024Z,10.00
2023-02-12T13:17:12.148Z,9.90
2023-02-12T13:18:27.131Z,10.00
2023-02-12T13:19:46.677Z,9.90
2023-02-12T13:21:01.630Z,10.00
2023-02-12T13:22:11.085Z,10.00
2023-02-12T13:23:24.495Z,10.00
2023-02-12T13:24:40.174Z,10.00
2023-02-12T13:25:55.033Z,10.00
2023-02-12T13:27:02.389Z,10.00
2023-02-12T13:28:07.484Z,10.00
2023-02-12T13:29:19.811Z,10.00
2023-02-12T13:30:30.478Z,10.00
2023-02-12T13:31:46.739Z,9.90
2023-02-12T13:33:01.415Z,9.90
2023-02-12T13:34:15.134Z,9.90
2023-02-12T13:35:22.890Z,9.90
2023-02-12T13:36:27.786Z,9.90
2023-02-12T13:37:39.937Z,9.90
2023-02-12T13:38:48.550Z,9.90
2023-02-12T13:39:54.395Z,9.90
2023-02-12T13:41:03.517Z,9.90
2023-02-12T13:42:18.135Z,9.90
2023-02-12T13:43:49.513Z,9.90
2023-02-12T13:45:04.369Z,9.90
2023-02-12T13:46:18.212Z,9.90
2023-02-12T13:47:36.072Z,9.90
2023-02-12T13:48:56.633Z,9.90
2023-02-12T13:50:09.002Z,9.90
2023-02-12T13:51:25.610Z,9.90
2023-02-12T13:52:42.222Z,9.90
2023-02-12T13:53:58.320Z,9.90
2023-02-12T13:55:23.435Z,9.90
2023-02-12T13:56:39.802Z,9.90
2023-02-12T13:57:42.340Z,9.90
2023-02-12T13:58:52.504Z,9.90
2023-02-12T13:59:58.299Z,9.90
2023-02-12T14:01:02.850Z,9.90
2023-02-12T14:02:26.033Z,9.90
2023-02-12T14:03:31.209Z,9.90
2023-02-12T14:04:45.252Z,9.90
2023-02-12T14:05:49.560Z,9.90
2023-02-12T14:06:55.919Z,9.90
2023-02-12T14:08:07.095Z,9.90
2023-02-12T14:09:11.556Z,9.90
2023-02-12T14:10:25.242Z,9.90
2023-02-12T14:11:28.747Z,9.90
2023-02-12T14:12:36.740Z,9.80
2023-02-12T14:13:53.719Z,9.80
2023-02-12T14:15:04.363Z,9.80
2023-02-12T14:16:38.664Z,9.80
2023-02-12T14:17:54.491Z,9.80
2023-02-12T14:19:41.590Z,9.80
2023-02-12T14:20:45.071Z,9.80
2023-02-12T14:21:47.838Z,9.80
2023-02-12T14:23:20.082Z,9.80
2023-02-12T14:24:54.557Z,9.80
2023-02-12T14:26:06.247Z,9.80
2023-02-12T14:27:33.801Z,9.80
2023-02-12T14:28:55.290Z,9.80
2023-02-12T14:30:25.860Z,9.80
2023-02-12T14:31:39.101Z,9.80
2023-02-12T14:33:20.445Z,9.80
2023-02-12T14:34:51.824Z,9.80
2023-02-12T14:36:20.404Z,9.80
2023-02-12T14:37:38.102Z,9.80
2023-02-12T14:39:27.511Z,9.80
2023-02-12T14:40:53.898Z,9.90
2023-02-12T14:42:56.834Z,9.80
2023-02-12T14:44:39.737Z,9.90
2023-02-12T14:45:43.158Z,9.90
2023-02-12T14:46:48.948Z,9.90
2023-02-12T14:47:55.893Z,9.90
2023-02-12T14:49:04.862Z,9.90
2023-02-12T14:50:19.949Z,9.90
2023-02-12T14:51:31.697Z,9.90
2023-02-12T14:52:42.184Z,9.90
2023-02-12T14:53:48.703Z,9.90
2023-02-12T14:55:00.193Z,9.90
2023-02-12T14:56:09.303Z,9.90
2023-02-12T14:57:20.523Z,9.90
2023-02-12T14:58:27.046Z,9.90
2023-02-12T14:59:33.850Z,9.90
2023-02-12T15:00:41.221Z,9.90
2023-02-12T15:01:45.567Z,9.90
2023-02-12T15:02:53.286Z,9.90
2023-02-12T15:03:58.908Z,9.90
2023-02-12T15:05:09.726Z,9.90
2023-02-12T15:06:19.241Z,9.90
2023-02-12T15:07:30.839Z,9.90
2023-02-12T15:08:42.930Z,9.90
2023-02-12T15:09:52.749Z,9.90
2023-02-12T15:11:03.827Z,9.90
2023-02-12T15:12:16.866Z,9.90
2023-02-12T15:13:29.568Z,9.80
2023-02-12T15:14:36.702Z,9.80
2023-02-12T15:15:46.818Z,9.80
2023-02-12T15:16:59.981Z,9.80
2023-02-12T15:18:14.719Z,9.80